sensor_id;sensor_type;location;lat;lon;timestamp;P1;durP1;ratioP1;P2;durP2;ratioP2
36359;SDS011;22388;52.432;20.662;2023-02-17T00:00:11;133.50;;;65.80;;
36359;SDS011;22388;52.432;20.662;2023-02-17T00:02:37;132.77;;;66.22;;
36359;SDS011;22388;52.432;20.662;2023-02-17T00:05:04;120.53;;;65.13;;
36359;SDS011;22388;52.432;20.662;2023-02-17T00:07:31;129.45;;;68.40;;
36359;SDS011;22388;52.432;20.662;2023-02-17T00:09:57;132.13;;;67.25;;
36359;SDS011;22388;52.432;20.662;2023-02-17T00:12:23;128.55;;;66.57;;
36359;SDS011;22388;52.432;20.662;2023-02-17T00:14:48;126.47;;;66.15;;
36359;SDS011;22388;52.432;20.662;2023-02-17T00:17:14;129.18;;;68.53;;
36359;SDS011;22388;52.432;20.662;2023-02-17T00:19:40;127.35;;;67.22;;
36359;SDS011;22388;52.432;20.662;2023-02-17T00:22:05;131.98;;;66.40;;
36359;SDS011;22388;52.432;20.662;2023-02-17T00:24:31;125.53;;;65.70;;
36359;SDS011;22388;52.432;20.662;2023-02-17T00:26:58;134.73;;;67.63;;
36359;SDS011;22388;52.432;20.662;2023-02-17T00:29:24;125.35;;;67.07;;
36359;SDS011;22388;52.432;20.662;2023-02-17T00:31:51;123.63;;;64.97;;
36359;SDS011;22388;52.432;20.662;2023-02-17T00:34:17;123.00;;;65.50;;
36359;SDS011;22388;52.432;20.662;2023-02-17T00:36:42;125.43;;;65.88;;
36359;SDS011;22388;52.432;20.662;2023-02-17T00:39:08;126.85;;;64.60;;
36359;SDS011;22388;52.432;20.662;2023-02-17T00:41:37;128.30;;;66.53;;
36359;SDS011;22388;52.432;20.662;2023-02-17T00:44:02;129.00;;;68.18;;
36359;SDS011;22388;52.432;20.662;2023-02-17T00:46:28;127.20;;;65.00;;
36359;SDS011;22388;52.432;20.662;2023-02-17T00:48:53;124.43;;;66.35;;
36359;SDS011;22388;52.432;20.662;2023-02-17T00:51:19;118.63;;;64.30;;
36359;SDS011;22388;52.432;20.662;2023-02-17T00:53:44;127.50;;;67.63;;
36359;SDS011;22388;52.432;20.662;2023-02-17T00:56:11;127.13;;;67.28;;
36359;SDS011;22388;52.432;20.662;2023-02-17T00:58:37;128.90;;;66.07;;
36359;SDS011;22388;52.432;20.662;2023-02-17T01:01:03;128.80;;;66.43;;
36359;SDS011;22388;52.432;20.662;2023-02-17T01:03:29;118.90;;;64.40;;
36359;SDS011;22388;52.432;20.662;2023-02-17T01:05:55;126.55;;;65.10;;
36359;SDS011;22388;52.432;20.662;2023-02-17T01:08:20;126.00;;;65.20;;
36359;SDS011;22388;52.432;20.662;2023-02-17T01:10:46;131.38;;;68.53;;
36359;SDS011;22388;52.432;20.662;2023-02-17T01:13:14;122.63;;;67.00;;
36359;SDS011;22388;52.432;20.662;2023-02-17T01:15:45;120.78;;;65.93;;
36359;SDS011;22388;52.432;20.662;2023-02-17T01:18:13;130.60;;;66.00;;
36359;SDS011;22388;52.432;20.662;2023-02-17T01:20:39;133.68;;;67.68;;
36359;SDS011;22388;52.432;20.662;2023-02-17T01:23:05;126.63;;;65.53;;
36359;SDS011;22388;52.432;20.662;2023-02-17T01:25:35;123.53;;;66.80;;
36359;SDS011;22388;52.432;20.662;2023-02-17T01:28:01;121.63;;;64.85;;
36359;SDS011;22388;52.432;20.662;2023-02-17T01:30:26;119.60;;;64.57;;
36359;SDS011;22388;52.432;20.662;2023-02-17T01:32:52;121.68;;;65.15;;
36359;SDS011;22388;52.432;20.662;2023-02-17T01:35:18;122.90;;;67.20;;
36359;SDS011;22388;52.432;20.662;2023-02-17T01:37:43;134.40;;;67.18;;
36359;SDS011;22388;52.432;20.662;2023-02-17T01:40:10;125.07;;;65.38;;
36359;SDS011;22388;52.432;20.662;2023-02-17T01:42:37;127.65;;;67.10;;
36359;SDS011;22388;52.432;20.662;2023-02-17T01:47:49;130.80;;;68.47;;
36359;SDS011;22388;52.432;20.662;2023-02-17T01:50:17;127.13;;;68.03;;
36359;SDS011;22388;52.432;20.662;2023-02-17T01:52:46;130.95;;;67.10;;
36359;SDS011;22388;52.432;20.662;2023-02-17T01:55:13;127.22;;;68.95;;
36359;SDS011;22388;52.432;20.662;2023-02-17T01:57:41;135.48;;;69.80;;
36359;SDS011;22388;52.432;20.662;2023-02-17T02:00:08;130.20;;;68.70;;
36359;SDS011;22388;52.432;20.662;2023-02-17T02:02:35;136.77;;;71.00;;
36359;SDS011;22388;52.432;20.662;2023-02-17T02:05:00;139.23;;;73.03;;
36359;SDS011;22388;52.432;20.662;2023-02-17T02:07:36;142.60;;;74.53;;
36359;SDS011;22388;52.432;20.662;2023-02-17T02:10:04;145.50;;;75.53;;
36359;SDS011;22388;52.432;20.662;2023-02-17T02:12:35;136.85;;;73.65;;
36359;SDS011;22388;52.432;20.662;2023-02-17T02:17:54;139.07;;;70.85;;
36359;SDS011;22388;52.432;20.662;2023-02-17T02:34:22;141.25;;;70.72;;
36359;SDS011;22388;52.432;20.662;2023-02-17T02:39:58;139.07;;;71.95;;
36359;SDS011;22388;52.432;20.662;2023-02-17T02:42:26;133.90;;;68.57;;
36359;SDS011;22388;52.432;20.662;2023-02-17T02:44:51;142.55;;;72.45;;
36359;SDS011;22388;52.432;20.662;2023-02-17T02:47:40;139.93;;;72.00;;
36359;SDS011;22388;52.432;20.662;2023-02-17T02:50:10;130.40;;;69.47;;
36359;SDS011;22388;52.432;20.662;2023-02-17T02:52:49;135.02;;;69.20;;
36359;SDS011;22388;52.432;20.662;2023-02-17T02:55:50;137.32;;;70.63;;
36359;SDS011;22388;52.432;20.662;2023-02-17T02:58:21;141.60;;;71.35;;
36359;SDS011;22388;52.432;20.662;2023-02-17T03:00:57;138.93;;;72.25;;
36359;SDS011;22388;52.432;20.662;2023-02-17T03:03:38;145.35;;;70.80;;
36359;SDS011;22388;52.432;20.662;2023-02-17T03:06:08;135.38;;;71.55;;
36359;SDS011;22388;52.432;20.662;2023-02-17T03:11:23;149.88;;;75.20;;
36359;SDS011;22388;52.432;20.662;2023-02-17T03:14:00;136.50;;;73.30;;
36359;SDS011;22388;52.432;20.662;2023-02-17T03:16:26;143.65;;;72.80;;
36359;SDS011;22388;52.432;20.662;2023-02-17T03:18:52;147.05;;;73.68;;
36359;SDS011;22388;52.432;20.662;2023-02-17T03:21:18;150.60;;;76.03;;
36359;SDS011;22388;52.432;20.662;2023-02-17T03:23:43;147.45;;;74.28;;
36359;SDS011;22388;52.432;20.662;2023-02-17T03:26:09;144.52;;;77.40;;
36359;SDS011;22388;52.432;20.662;2023-02-17T03:28:35;146.10;;;74.88;;
36359;SDS011;22388;52.432;20.662;2023-02-17T03:31:00;145.40;;;75.00;;
36359;SDS011;22388;52.432;20.662;2023-02-17T03:33:26;147.48;;;75.03;;
36359;SDS011;22388;52.432;20.662;2023-02-17T03:35:51;143.48;;;74.07;;
36359;SDS011;22388;52.432;20.662;2023-02-17T03:38:17;151.57;;;75.40;;
36359;SDS011;22388;52.432;20.662;2023-02-17T03:40:42;142.77;;;74.28;;
36359;SDS011;22388;52.432;20.662;2023-02-17T03:43:08;150.02;;;74.05;;
36359;SDS011;22388;52.432;20.662;2023-02-17T03:45:37;153.02;;;76.53;;
36359;SDS011;22388;52.432;20.662;2023-02-17T03:48:02;145.70;;;72.72;;
36359;SDS011;22388;52.432;20.662;2023-02-17T03:50:29;145.25;;;74.85;;
36359;SDS011;22388;52.432;20.662;2023-02-17T03:52:55;142.00;;;74.10;;
36359;SDS011;22388;52.432;20.662;2023-02-17T03:55:20;142.75;;;74.38;;
36359;SDS011;22388;52.432;20.662;2023-02-17T03:57:46;148.00;;;76.50;;
36359;SDS011;22388;52.432;20.662;2023-02-17T04:00:12;150.52;;;74.22;;
36359;SDS011;22388;52.432;20.662;2023-02-17T04:02:38;148.52;;;74.68;;
36359;SDS011;22388;52.432;20.662;2023-02-17T04:05:03;140.15;;;74.22;;
36359;SDS011;22388;52.432;20.662;2023-02-17T04:07:29;154.05;;;74.57;;
36359;SDS011;22388;52.432;20.662;2023-02-17T04:09:55;146.95;;;75.22;;
36359;SDS011;22388;52.432;20.662;2023-02-17T04:12:20;156.65;;;76.70;;
36359;SDS011;22388;52.432;20.662;2023-02-17T04:14:46;155.45;;;74.82;;
36359;SDS011;22388;52.432;20.662;2023-02-17T04:17:11;144.95;;;72.18;;
36359;SDS011;22388;52.432;20.662;2023-02-17T04:19:37;151.57;;;74.60;;
36359;SDS011;22388;52.432;20.662;2023-02-17T04:22:03;150.60;;;74.85;;
36359;SDS011;22388;52.432;20.662;2023-02-17T04:24:32;145.35;;;75.15;;
36359;SDS011;22388;52.432;20.662;2023-02-17T04:27:00;149.75;;;74.53;;
36359;SDS011;22388;52.432;20.662;2023-02-17T04:29:26;151.68;;;75.97;;
36359;SDS011;22388;52.432;20.662;2023-02-17T04:31:51;150.13;;;76.13;;
36359;SDS011;22388;52.432;20.662;2023-02-17T04:34:17;150.02;;;76.78;;
36359;SDS011;22388;52.432;20.662;2023-02-17T04:36:42;149.15;;;73.28;;
36359;SDS011;22388;52.432;20.662;2023-02-17T04:39:08;150.38;;;75.80;;
36359;SDS011;22388;52.432;20.662;2023-02-17T04:41:34;155.43;;;76.80;;
36359;SDS011;22388;52.432;20.662;2023-02-17T04:43:59;146.77;;;74.53;;
36359;SDS011;22388;52.432;20.662;2023-02-17T04:46:25;155.98;;;77.57;;
36359;SDS011;22388;52.432;20.662;2023-02-17T04:48:50;143.52;;;73.68;;
36359;SDS011;22388;52.432;20.662;2023-02-17T04:51:16;156.07;;;75.80;;
36359;SDS011;22388;52.432;20.662;2023-02-17T04:53:41;154.90;;;74.97;;
36359;SDS011;22388;52.432;20.662;2023-02-17T04:56:07;153.45;;;77.03;;
36359;SDS011;22388;52.432;20.662;2023-02-17T04:58:32;149.88;;;72.45;;
36359;SDS011;22388;52.432;20.662;2023-02-17T05:01:01;149.02;;;74.68;;
36359;SDS011;22388;52.432;20.662;2023-02-17T05:03:27;145.80;;;73.18;;
36359;SDS011;22388;52.432;20.662;2023-02-17T05:05:52;151.23;;;76.82;;
36359;SDS011;22388;52.432;20.662;2023-02-17T05:08:18;150.98;;;74.68;;
36359;SDS011;22388;52.432;20.662;2023-02-17T05:10:43;159.20;;;78.45;;
36359;SDS011;22388;52.432;20.662;2023-02-17T05:13:09;163.15;;;77.05;;
36359;SDS011;22388;52.432;20.662;2023-02-17T05:15:36;142.73;;;73.93;;
36359;SDS011;22388;52.432;20.662;2023-02-17T05:18:01;145.13;;;73.82;;
36359;SDS011;22388;52.432;20.662;2023-02-17T05:20:27;138.63;;;70.65;;
36359;SDS011;22388;52.432;20.662;2023-02-17T05:22:53;146.38;;;71.65;;
36359;SDS011;22388;52.432;20.662;2023-02-17T05:25:19;160.07;;;76.40;;
36359;SDS011;22388;52.432;20.662;2023-02-17T05:27:44;158.15;;;77.47;;
36359;SDS011;22388;52.432;20.662;2023-02-17T05:30:10;161.25;;;73.72;;
36359;SDS011;22388;52.432;20.662;2023-02-17T05:32:36;145.07;;;73.03;;
36359;SDS011;22388;52.432;20.662;2023-02-17T05:35:01;150.25;;;74.18;;
36359;SDS011;22388;52.432;20.662;2023-02-17T05:37:27;163.23;;;76.18;;
36359;SDS011;22388;52.432;20.662;2023-02-17T05:39:53;151.40;;;75.72;;
36359;SDS011;22388;52.432;20.662;2023-02-17T05:42:18;149.18;;;73.03;;
36359;SDS011;22388;52.432;20.662;2023-02-17T05:44:44;152.18;;;75.32;;
36359;SDS011;22388;52.432;20.662;2023-02-17T05:47:10;145.65;;;70.55;;
36359;SDS011;22388;52.432;20.662;2023-02-17T05:49:35;153.75;;;75.32;;
36359;SDS011;22388;52.432;20.662;2023-02-17T05:52:01;149.40;;;71.15;;
36359;SDS011;22388;52.432;20.662;2023-02-17T05:54:27;148.10;;;72.05;;
36359;SDS011;22388;52.432;20.662;2023-02-17T05:56:52;149.95;;;71.88;;
36359;SDS011;22388;52.432;20.662;2023-02-17T05:59:18;146.15;;;70.60;;
36359;SDS011;22388;52.432;20.662;2023-02-17T06:01:44;137.13;;;68.63;;
36359;SDS011;22388;52.432;20.662;2023-02-17T06:04:09;137.77;;;67.55;;
36359;SDS011;22388;52.432;20.662;2023-02-17T06:06:35;152.27;;;71.57;;
36359;SDS011;22388;52.432;20.662;2023-02-17T06:09:00;151.63;;;70.65;;
36359;SDS011;22388;52.432;20.662;2023-02-17T06:11:26;151.23;;;71.75;;
36359;SDS011;22388;52.432;20.662;2023-02-17T06:13:51;151.65;;;70.18;;
36359;SDS011;22388;52.432;20.662;2023-02-17T06:16:17;150.32;;;72.18;;
36359;SDS011;22388;52.432;20.662;2023-02-17T06:18:43;144.10;;;73.10;;
36359;SDS011;22388;52.432;20.662;2023-02-17T06:21:08;150.45;;;71.55;;
36359;SDS011;22388;52.432;20.662;2023-02-17T06:23:34;151.77;;;71.20;;
36359;SDS011;22388;52.432;20.662;2023-02-17T06:25:59;148.25;;;72.03;;
36359;SDS011;22388;52.432;20.662;2023-02-17T06:28:25;142.18;;;68.70;;
36359;SDS011;22388;52.432;20.662;2023-02-17T06:30:50;137.95;;;66.03;;
36359;SDS011;22388;52.432;20.662;2023-02-17T06:33:16;141.07;;;70.10;;
36359;SDS011;22388;52.432;20.662;2023-02-17T06:35:41;143.30;;;69.20;;
36359;SDS011;22388;52.432;20.662;2023-02-17T06:38:08;139.52;;;67.38;;
36359;SDS011;22388;52.432;20.662;2023-02-17T06:40:34;139.55;;;68.72;;
36359;SDS011;22388;52.432;20.662;2023-02-17T06:42:59;132.63;;;66.40;;
36359;SDS011;22388;52.432;20.662;2023-02-17T06:45:25;129.68;;;63.40;;
36359;SDS011;22388;52.432;20.662;2023-02-17T06:47:50;131.52;;;64.65;;
36359;SDS011;22388;52.432;20.662;2023-02-17T06:50:16;126.60;;;64.25;;
36359;SDS011;22388;52.432;20.662;2023-02-17T06:52:41;132.55;;;63.65;;
36359;SDS011;22388;52.432;20.662;2023-02-17T06:55:07;122.63;;;62.13;;
36359;SDS011;22388;52.432;20.662;2023-02-17T06:57:33;123.60;;;64.53;;
36359;SDS011;22388;52.432;20.662;2023-02-17T06:59:58;120.55;;;62.17;;
36359;SDS011;22388;52.432;20.662;2023-02-17T07:02:24;125.30;;;60.00;;
36359;SDS011;22388;52.432;20.662;2023-02-17T07:04:50;112.88;;;57.15;;
36359;SDS011;22388;52.432;20.662;2023-02-17T07:07:15;119.22;;;60.63;;
36359;SDS011;22388;52.432;20.662;2023-02-17T07:09:41;114.32;;;58.97;;
36359;SDS011;22388;52.432;20.662;2023-02-17T07:12:07;116.63;;;58.40;;
36359;SDS011;22388;52.432;20.662;2023-02-17T07:14:33;115.90;;;59.05;;
36359;SDS011;22388;52.432;20.662;2023-02-17T07:16:59;113.07;;;57.75;;
36359;SDS011;22388;52.432;20.662;2023-02-17T07:19:25;115.68;;;58.60;;
36359;SDS011;22388;52.432;20.662;2023-02-17T07:21:50;111.07;;;57.22;;
36359;SDS011;22388;52.432;20.662;2023-02-17T07:24:16;114.10;;;58.63;;
36359;SDS011;22388;52.432;20.662;2023-02-17T07:26:42;110.63;;;57.53;;
36359;SDS011;22388;52.432;20.662;2023-02-17T07:29:07;103.53;;;55.65;;
36359;SDS011;22388;52.432;20.662;2023-02-17T07:31:33;106.72;;;56.40;;
36359;SDS011;22388;52.432;20.662;2023-02-17T07:33:59;115.25;;;59.15;;
36359;SDS011;22388;52.432;20.662;2023-02-17T07:36:25;108.93;;;57.17;;
36359;SDS011;22388;52.432;20.662;2023-02-17T07:38:51;109.15;;;54.78;;
36359;SDS011;22388;52.432;20.662;2023-02-17T07:41:18;103.13;;;55.28;;
36359;SDS011;22388;52.432;20.662;2023-02-17T07:43:45;103.63;;;55.05;;
36359;SDS011;22388;52.432;20.662;2023-02-17T07:46:11;103.55;;;55.00;;
36359;SDS011;22388;52.432;20.662;2023-02-17T07:48:38;102.82;;;54.70;;
36359;SDS011;22388;52.432;20.662;2023-02-17T07:51:13;100.03;;;53.70;;
36359;SDS011;22388;52.432;20.662;2023-02-17T07:53:40;107.15;;;54.95;;
36359;SDS011;22388;52.432;20.662;2023-02-17T07:56:08;101.65;;;54.22;;
36359;SDS011;22388;52.432;20.662;2023-02-17T07:58:35;100.63;;;52.83;;
36359;SDS011;22388;52.432;20.662;2023-02-17T08:01:09;102.63;;;54.42;;
36359;SDS011;22388;52.432;20.662;2023-02-17T08:03:36;101.07;;;54.67;;
36359;SDS011;22388;52.432;20.662;2023-02-17T08:06:03;99.55;;;54.75;;
36359;SDS011;22388;52.432;20.662;2023-02-17T08:08:29;100.60;;;52.10;;
36359;SDS011;22388;52.432;20.662;2023-02-17T08:11:14;91.40;;;50.47;;
36359;SDS011;22388;52.432;20.662;2023-02-17T08:13:59;97.57;;;51.42;;
36359;SDS011;22388;52.432;20.662;2023-02-17T08:16:25;96.10;;;51.47;;
36359;SDS011;22388;52.432;20.662;2023-02-17T08:18:51;95.43;;;51.47;;
36359;SDS011;22388;52.432;20.662;2023-02-17T08:21:19;95.97;;;49.65;;
36359;SDS011;22388;52.432;20.662;2023-02-17T08:23:46;90.38;;;50.13;;
36359;SDS011;22388;52.432;20.662;2023-02-17T08:26:12;92.45;;;49.00;;
36359;SDS011;22388;52.432;20.662;2023-02-17T08:28:38;92.22;;;50.70;;
36359;SDS011;22388;52.432;20.662;2023-02-17T08:31:04;88.20;;;48.40;;
36359;SDS011;22388;52.432;20.662;2023-02-17T08:33:30;90.70;;;48.83;;
36359;SDS011;22388;52.432;20.662;2023-02-17T08:35:55;93.25;;;50.63;;
36359;SDS011;22388;52.432;20.662;2023-02-17T08:38:21;88.75;;;47.58;;
36359;SDS011;22388;52.432;20.662;2023-02-17T08:40:47;93.97;;;48.38;;
36359;SDS011;22388;52.432;20.662;2023-02-17T08:43:13;85.30;;;47.88;;
36359;SDS011;22388;52.432;20.662;2023-02-17T08:45:38;89.05;;;48.42;;
36359;SDS011;22388;52.432;20.662;2023-02-17T08:48:04;83.28;;;47.40;;
36359;SDS011;22388;52.432;20.662;2023-02-17T08:50:30;84.35;;;47.65;;
36359;SDS011;22388;52.432;20.662;2023-02-17T08:52:56;86.93;;;47.55;;
36359;SDS011;22388;52.432;20.662;2023-02-17T08:55:22;88.93;;;47.40;;
36359;SDS011;22388;52.432;20.662;2023-02-17T08:57:48;80.35;;;45.88;;
36359;SDS011;22388;52.432;20.662;2023-02-17T09:00:14;79.07;;;45.28;;
36359;SDS011;22388;52.432;20.662;2023-02-17T09:02:41;76.80;;;44.33;;
36359;SDS011;22388;52.432;20.662;2023-02-17T09:05:09;82.53;;;44.58;;
36359;SDS011;22388;52.432;20.662;2023-02-17T09:07:36;81.47;;;44.50;;
36359;SDS011;22388;52.432;20.662;2023-02-17T09:10:03;87.15;;;46.35;;
36359;SDS011;22388;52.432;20.662;2023-02-17T09:12:31;77.22;;;44.92;;
36359;SDS011;22388;52.432;20.662;2023-02-17T09:14:57;82.10;;;46.10;;
36359;SDS011;22388;52.432;20.662;2023-02-17T09:17:23;84.72;;;45.97;;
36359;SDS011;22388;52.432;20.662;2023-02-17T09:19:49;80.95;;;45.95;;
36359;SDS011;22388;52.432;20.662;2023-02-17T09:22:14;88.13;;;48.15;;
36359;SDS011;22388;52.432;20.662;2023-02-17T09:24:42;84.00;;;46.03;;
36359;SDS011;22388;52.432;20.662;2023-02-17T09:27:08;87.60;;;47.75;;
36359;SDS011;22388;52.432;20.662;2023-02-17T09:29:35;92.57;;;49.95;;
36359;SDS011;22388;52.432;20.662;2023-02-17T09:32:05;92.10;;;48.38;;
36359;SDS011;22388;52.432;20.662;2023-02-17T09:34:35;94.20;;;51.08;;
36359;SDS011;22388;52.432;20.662;2023-02-17T09:37:02;95.20;;;50.65;;
36359;SDS011;22388;52.432;20.662;2023-02-17T09:39:28;91.32;;;50.33;;
36359;SDS011;22388;52.432;20.662;2023-02-17T09:41:54;94.88;;;52.90;;
36359;SDS011;22388;52.432;20.662;2023-02-17T09:44:24;102.03;;;53.90;;
36359;SDS011;22388;52.432;20.662;2023-02-17T09:46:56;97.03;;;53.00;;
36359;SDS011;22388;52.432;20.662;2023-02-17T09:49:25;107.07;;;54.58;;
36359;SDS011;22388;52.432;20.662;2023-02-17T09:52:01;99.28;;;53.70;;
36359;SDS011;22388;52.432;20.662;2023-02-17T09:57:25;105.80;;;54.42;;
36359;SDS011;22388;52.432;20.662;2023-02-17T10:00:06;103.72;;;55.42;;
36359;SDS011;22388;52.432;20.662;2023-02-17T10:05:34;107.40;;;58.13;;
36359;SDS011;22388;52.432;20.662;2023-02-17T10:08:10;103.88;;;55.05;;
36359;SDS011;22388;52.432;20.662;2023-02-17T10:10:44;110.25;;;57.97;;
36359;SDS011;22388;52.432;20.662;2023-02-17T10:13:12;104.07;;;55.80;;
36359;SDS011;22388;52.432;20.662;2023-02-17T10:15:41;110.55;;;56.08;;
36359;SDS011;22388;52.432;20.662;2023-02-17T10:18:16;101.82;;;54.45;;
36359;SDS011;22388;52.432;20.662;2023-02-17T10:23:22;98.93;;;54.25;;
36359;SDS011;22388;52.432;20.662;2023-02-17T10:29:05;99.65;;;53.63;;
36359;SDS011;22388;52.432;20.662;2023-02-17T10:31:44;103.97;;;54.20;;
36359;SDS011;22388;52.432;20.662;2023-02-17T10:36:59;110.03;;;56.40;;
36359;SDS011;22388;52.432;20.662;2023-02-17T10:42:16;105.60;;;56.33;;
36359;SDS011;22388;52.432;20.662;2023-02-17T10:44:44;98.00;;;54.60;;
36359;SDS011;22388;52.432;20.662;2023-02-17T10:47:10;97.68;;;53.13;;
36359;SDS011;22388;52.432;20.662;2023-02-17T10:49:38;94.07;;;52.53;;
36359;SDS011;22388;52.432;20.662;2023-02-17T10:52:10;99.55;;;53.95;;
36359;SDS011;22388;52.432;20.662;2023-02-17T10:54:41;96.93;;;53.00;;
36359;SDS011;22388;52.432;20.662;2023-02-17T10:59:40;93.95;;;48.13;;
36359;SDS011;22388;52.432;20.662;2023-02-17T11:04:47;95.07;;;47.85;;
36359;SDS011;22388;52.432;20.662;2023-02-17T11:07:16;86.65;;;47.35;;
36359;SDS011;22388;52.432;20.662;2023-02-17T11:09:47;87.80;;;49.33;;
36359;SDS011;22388;52.432;20.662;2023-02-17T11:12:24;88.55;;;49.72;;
36359;SDS011;22388;52.432;20.662;2023-02-17T11:14:54;93.05;;;48.47;;
36359;SDS011;22388;52.432;20.662;2023-02-17T11:17:53;92.63;;;49.78;;
36359;SDS011;22388;52.432;20.662;2023-02-17T11:22:38;92.38;;;49.92;;
36359;SDS011;22388;52.432;20.662;2023-02-17T11:25:53;96.97;;;52.47;;
36359;SDS011;22388;52.432;20.662;2023-02-17T11:27:53;87.80;;;51.08;;
36359;SDS011;22388;52.432;20.662;2023-02-17T11:30:23;94.50;;;51.95;;
36359;SDS011;22388;52.432;20.662;2023-02-17T11:32:50;97.30;;;53.40;;
36359;SDS011;22388;52.432;20.662;2023-02-17T11:35:19;93.53;;;51.05;;
36359;SDS011;22388;52.432;20.662;2023-02-17T11:37:48;98.25;;;52.20;;
36359;SDS011;22388;52.432;20.662;2023-02-17T11:40:31;95.28;;;51.72;;
36359;SDS011;22388;52.432;20.662;2023-02-17T11:43:35;91.70;;;50.67;;
36359;SDS011;22388;52.432;20.662;2023-02-17T11:46:07;96.80;;;51.42;;
36359;SDS011;22388;52.432;20.662;2023-02-17T11:51:19;100.15;;;53.05;;
36359;SDS011;22388;52.432;20.662;2023-02-17T11:56:33;91.47;;;51.30;;
36359;SDS011;22388;52.432;20.662;2023-02-17T12:04:55;100.93;;;52.63;;
36359;SDS011;22388;52.432;20.662;2023-02-17T12:10:54;100.78;;;52.90;;
36359;SDS011;22388;52.432;20.662;2023-02-17T12:13:40;102.20;;;52.63;;
36359;SDS011;22388;52.432;20.662;2023-02-17T12:19:57;97.65;;;52.10;;
36359;SDS011;22388;52.432;20.662;2023-02-17T12:22:19;100.70;;;53.55;;
36359;SDS011;22388;52.432;20.662;2023-02-17T12:27:37;102.57;;;52.85;;
36359;SDS011;22388;52.432;20.662;2023-02-17T12:30:16;104.00;;;52.00;;
36359;SDS011;22388;52.432;20.662;2023-02-17T12:38:18;102.47;;;53.28;;
36359;SDS011;22388;52.432;20.662;2023-02-17T12:41:02;98.60;;;51.83;;
36359;SDS011;22388;52.432;20.662;2023-02-17T12:43:36;103.27;;;53.10;;
36359;SDS011;22388;52.432;20.662;2023-02-17T12:46:05;105.75;;;54.35;;
36359;SDS011;22388;52.432;20.662;2023-02-17T12:48:35;108.15;;;52.47;;
36359;SDS011;22388;52.432;20.662;2023-02-17T12:57:21;105.70;;;53.22;;
36359;SDS011;22388;52.432;20.662;2023-02-17T12:59:50;104.13;;;50.22;;
36359;SDS011;22388;52.432;20.662;2023-02-17T13:02:20;99.25;;;52.05;;
36359;SDS011;22388;52.432;20.662;2023-02-17T13:04:51;101.25;;;51.67;;
36359;SDS011;22388;52.432;20.662;2023-02-17T13:10:03;96.88;;;49.72;;
36359;SDS011;22388;52.432;20.662;2023-02-17T13:12:37;103.97;;;49.92;;
36359;SDS011;22388;52.432;20.662;2023-02-17T13:15:24;108.13;;;49.22;;
36359;SDS011;22388;52.432;20.662;2023-02-17T13:17:59;98.80;;;47.83;;
36359;SDS011;22388;52.432;20.662;2023-02-17T13:20:40;102.13;;;49.05;;
36359;SDS011;22388;52.432;20.662;2023-02-17T13:23:28;102.43;;;49.58;;
36359;SDS011;22388;52.432;20.662;2023-02-17T13:26:02;95.07;;;46.53;;
36359;SDS011;22388;52.432;20.662;2023-02-17T13:28:44;98.85;;;46.35;;
36359;SDS011;22388;52.432;20.662;2023-02-17T13:31:20;100.55;;;47.38;;
36359;SDS011;22388;52.432;20.662;2023-02-17T13:33:52;96.97;;;44.20;;
36359;SDS011;22388;52.432;20.662;2023-02-17T13:36:21;99.05;;;45.65;;
36359;SDS011;22388;52.432;20.662;2023-02-17T13:41:54;90.43;;;43.75;;
36359;SDS011;22388;52.432;20.662;2023-02-17T13:46:47;100.20;;;47.15;;
36359;SDS011;22388;52.432;20.662;2023-02-17T13:49:19;98.78;;;46.17;;
36359;SDS011;22388;52.432;20.662;2023-02-17T13:51:47;89.97;;;44.03;;
36359;SDS011;22388;52.432;20.662;2023-02-17T13:54:12;98.53;;;46.65;;
36359;SDS011;22388;52.432;20.662;2023-02-17T13:56:39;99.70;;;45.88;;
36359;SDS011;22388;52.432;20.662;2023-02-17T13:59:24;100.05;;;48.00;;
36359;SDS011;22388;52.432;20.662;2023-02-17T14:01:50;107.65;;;48.85;;
36359;SDS011;22388;52.432;20.662;2023-02-17T14:04:35;104.05;;;49.20;;
36359;SDS011;22388;52.432;20.662;2023-02-17T14:07:02;105.53;;;49.90;;
36359;SDS011;22388;52.432;20.662;2023-02-17T14:09:30;112.28;;;50.75;;
36359;SDS011;22388;52.432;20.662;2023-02-17T14:11:57;116.18;;;51.42;;
36359;SDS011;22388;52.432;20.662;2023-02-17T14:14:25;116.22;;;52.17;;
36359;SDS011;22388;52.432;20.662;2023-02-17T14:19:56;101.80;;;49.70;;
36359;SDS011;22388;52.432;20.662;2023-02-17T14:25:01;108.38;;;53.20;;
36359;SDS011;22388;52.432;20.662;2023-02-17T14:32:39;117.75;;;56.38;;
36359;SDS011;22388;52.432;20.662;2023-02-17T14:35:09;112.45;;;53.35;;
36359;SDS011;22388;52.432;20.662;2023-02-17T14:37:41;110.78;;;52.65;;
36359;SDS011;22388;52.432;20.662;2023-02-17T14:40:24;107.03;;;55.28;;
36359;SDS011;22388;52.432;20.662;2023-02-17T14:42:51;110.97;;;53.85;;
36359;SDS011;22388;52.432;20.662;2023-02-17T14:45:19;112.95;;;56.15;;
36359;SDS011;22388;52.432;20.662;2023-02-17T14:47:46;116.07;;;57.22;;
36359;SDS011;22388;52.432;20.662;2023-02-17T14:50:11;119.15;;;53.78;;
36359;SDS011;22388;52.432;20.662;2023-02-17T14:52:41;119.35;;;56.60;;
36359;SDS011;22388;52.432;20.662;2023-02-17T14:55:14;117.63;;;56.42;;
36359;SDS011;22388;52.432;20.662;2023-02-17T15:00:10;122.15;;;55.65;;
36359;SDS011;22388;52.432;20.662;2023-02-17T15:02:38;122.30;;;55.30;;
36359;SDS011;22388;52.432;20.662;2023-02-17T15:05:04;114.18;;;55.90;;
36359;SDS011;22388;52.432;20.662;2023-02-17T15:07:32;115.63;;;57.15;;
36359;SDS011;22388;52.432;20.662;2023-02-17T15:09:57;118.90;;;56.55;;
36359;SDS011;22388;52.432;20.662;2023-02-17T15:12:23;103.78;;;53.80;;
36359;SDS011;22388;52.432;20.662;2023-02-17T15:14:49;110.65;;;55.35;;
36359;SDS011;22388;52.432;20.662;2023-02-17T15:17:15;112.50;;;54.70;;
36359;SDS011;22388;52.432;20.662;2023-02-17T15:19:40;111.80;;;56.05;;
36359;SDS011;22388;52.432;20.662;2023-02-17T15:22:09;116.93;;;57.20;;
36359;SDS011;22388;52.432;20.662;2023-02-17T15:24:36;113.03;;;56.55;;
36359;SDS011;22388;52.432;20.662;2023-02-17T15:27:02;125.60;;;63.90;;
36359;SDS011;22388;52.432;20.662;2023-02-17T15:29:29;113.00;;;58.38;;
36359;SDS011;22388;52.432;20.662;2023-02-17T15:31:55;113.63;;;60.92;;
36359;SDS011;22388;52.432;20.662;2023-02-17T15:34:24;113.18;;;58.13;;
36359;SDS011;22388;52.432;20.662;2023-02-17T15:36:59;112.88;;;57.17;;
36359;SDS011;22388;52.432;20.662;2023-02-17T15:39:25;109.03;;;55.25;;
36359;SDS011;22388;52.432;20.662;2023-02-17T15:41:51;109.20;;;57.88;;
36359;SDS011;22388;52.432;20.662;2023-02-17T15:44:22;110.43;;;59.78;;
36359;SDS011;22388;52.432;20.662;2023-02-17T15:46:51;105.88;;;55.67;;
36359;SDS011;22388;52.432;20.662;2023-02-17T15:49:18;120.78;;;58.90;;